Darstellungsparameter: Aktuell verwendete Einstellungen:
Skalierung der Graphiken ... ?
xyx+y,   Skalierungsfaktor:      Skalierung: Modus: x, Faktor: 1
Darstellungszeitraum ... ?
Vom - - bis: - -   Zeitraum: 30.04.2020 - 01.05.2020
Min/Max/Avg-Anzeige ... ?
Zeige MMA aktuell
Zeige MMA Monat
Zeige MMA alles
Zeige --A aktuell
Zeige --A Monat
Zeige --A alles
Keine MMA-Anzeige
MMA:
Average (ber die Originaldaten)
MMA-Basis: 30.04.2020 - 01.05.2020
Quicknavigation für Darstellung... ?
Tage:      1T, 2T, 3T, 5T -1T -2T -3T -5T +1T +2T +3T +5T
Wochen: 1W, 2W, 3W -1W -2W -3W +1W +2W +3W
Monate: 1M, 3M, 6M -1M -3M -6M +1M +3M +6M
Jahre:    1J, 3J, 5J, 10J -1J -3J -5J -10J +1J +3J +5J +10J
Nutze für die Darstellung ... ?
Originaldaten oder Mittelwerte auf ...
Stundenbasis Tagesbasis Wochenbasis
Monatsbasis Jahresbasis      Datenbasis: Original-Daten
Darstellen als:
Statistik (Auto) Statistik J:M      Darstellung:
Zur Graphik,    zurück zur Übersicht aller Sensoren.
 
Tabellarische Datenbersicht: ?
 
Sensor: Nr:Datum:Temp:Feuchte:
Aussen-T/F 1 30-04-2020 00:03:17 13 C 34 %
2 30-04-2020 00:13:17 13.2 C 34 %
3 30-04-2020 00:23:17 13.3 C 33 %
4 30-04-2020 00:33:17 13.2 C 33 %
5 30-04-2020 00:43:17 13.3 C 33 %
6 30-04-2020 00:53:17 13.1 C 33 %
7 30-04-2020 01:03:17 13.1 C 33 %
8 30-04-2020 01:13:17 13.2 C 33 %
9 30-04-2020 01:23:17 13.2 C 33 %
10 30-04-2020 01:33:17 13.4 C 33 %
11 30-04-2020 01:43:17 13.4 C 32 %
12 30-04-2020 01:53:17 13 C 34 %
13 30-04-2020 02:03:17 12 C 37 %
14 30-04-2020 02:13:17 11.8 C 39 %
15 30-04-2020 02:23:17 11.5 C 39 %
16 30-04-2020 02:33:17 11.8 C 38 %
17 30-04-2020 02:43:17 11.7 C 38 %
18 30-04-2020 02:53:17 11.8 C 37 %
19 30-04-2020 03:03:17 11.7 C 37 %
20 30-04-2020 03:13:17 11.2 C 38 %
21 30-04-2020 03:23:17 10.9 C 40 %
22 30-04-2020 03:33:17 10.9 C 40 %
23 30-04-2020 03:43:18 11 C 40 %
24 30-04-2020 03:53:17 11 C 40 %
25 30-04-2020 04:03:17 10.8 C 41 %
Sensor: Nr:Datum:Temp:Feuchte:
Aussen-T/F 26 30-04-2020 04:13:17 10.7 C 41 %
27 30-04-2020 04:23:17 10.6 C 43 %
28 30-04-2020 04:33:18 10.7 C 44 %
29 30-04-2020 04:43:18 10.6 C 44 %
30 30-04-2020 04:53:17 10.7 C 45 %
31 30-04-2020 05:03:17 10.7 C 45 %
32 30-04-2020 05:13:17 10.8 C 45 %
33 30-04-2020 05:23:17 10.8 C 45 %
34 30-04-2020 05:33:17 10.8 C 45 %
35 30-04-2020 05:43:17 10.7 C 45 %
36 30-04-2020 05:53:18 10.8 C 45 %
37 30-04-2020 06:03:17 10.7 C 45 %
38 30-04-2020 06:13:18 10.7 C 45 %
39 30-04-2020 06:23:17 10.7 C 45 %
40 30-04-2020 06:33:17 10.8 C 45 %
41 30-04-2020 06:43:17 10.7 C 45 %
42 30-04-2020 06:53:17 10.8 C 45 %
43 30-04-2020 07:03:17 10.6 C 44 %
44 30-04-2020 07:13:17 10.3 C 42 %
45 30-04-2020 07:23:17 10.2 C 42 %
46 30-04-2020 07:33:17 10.2 C 42 %
47 30-04-2020 07:43:17 10.1 C 42 %
48 30-04-2020 07:53:17 10 C 43 %
49 30-04-2020 08:03:17 9.9 C 42 %
50 30-04-2020 08:13:17 9.8 C 43 %
Sensor: Nr:Datum:Temp:Feuchte:
Aussen-T/F 51 30-04-2020 08:23:17 10 C 43 %
52 30-04-2020 08:33:17 11 C 39 %
53 30-04-2020 08:43:17 10.7 C 40 %
54 30-04-2020 08:53:17 10.9 C 40 %
55 30-04-2020 09:03:17 11.2 C 39 %
56 30-04-2020 09:13:17 11.8 C 37 %
57 30-04-2020 09:23:18 12.1 C 36 %
58 30-04-2020 09:33:17 12.5 C 36 %
59 30-04-2020 09:43:17 12.5 C 36 %
60 30-04-2020 09:53:17 12.7 C 36 %
61 30-04-2020 10:03:17 13.2 C 35 %
62 30-04-2020 10:13:17 13.9 C 35 %
63 30-04-2020 10:23:17 14 C 33 %
64 30-04-2020 10:33:17 13.7 C 32 %
65 30-04-2020 10:43:17 14.4 C 31 %
66 30-04-2020 10:53:18 14 C 31 %
67 30-04-2020 11:03:18 14 C 30 %
68 30-04-2020 11:13:18 14 C 30 %
69 30-04-2020 11:23:17 14 C 31 %
70 30-04-2020 11:33:17 14.5 C 31 %
71 30-04-2020 11:43:17 14.2 C 30 %
72 30-04-2020 11:53:17 14.3 C 30 %
73 30-04-2020 12:03:18 14.5 C 30 %
74 30-04-2020 12:13:18 14.2 C 29 %
75 30-04-2020 12:23:17 14.6 C 29 %
Sensor: Nr:Datum:Temp:Feuchte:
Aussen-T/F 76 30-04-2020 12:33:17 14.4 C 29 %
77 30-04-2020 12:43:17 14.5 C 29 %
78 30-04-2020 12:53:18 15 C 27 %
79 30-04-2020 13:03:17 14.7 C 27 %
80 30-04-2020 13:13:17 14.6 C 27 %
81 30-04-2020 13:23:17 14.6 C 27 %
82 30-04-2020 13:33:17 14.5 C 27 %
83 30-04-2020 13:43:17 15.2 C 26 %
84 30-04-2020 13:53:17 15.9 C 25 %
85 30-04-2020 14:03:18 16.8 C 23 %
86 30-04-2020 14:13:18 16.2 C 21 %
87 30-04-2020 14:23:17 16.6 C 21 %
88 30-04-2020 14:33:18 19.7 C 20 %
89 30-04-2020 14:43:18 18.3 C 20 %
90 30-04-2020 14:53:17 18.1 C 20 %
91 30-04-2020 15:03:18 19.2 C 20 %
92 30-04-2020 15:13:18 19.5 C 20 %
93 30-04-2020 15:23:17 17.4 C 20 %
94 30-04-2020 15:33:17 16.5 C 20 %
95 30-04-2020 15:43:17 15.8 C 20 %
96 30-04-2020 15:53:18 15.9 C 21 %
97 30-04-2020 16:03:17 16.2 C 20 %
98 30-04-2020 16:13:17 16.3 C 20 %
99 30-04-2020 16:23:17 16.7 C 21 %
100 30-04-2020 16:33:17 16.4 C 20 %
Sensor: Nr:Datum:Temp:Feuchte:
Aussen-T/F 101 30-04-2020 16:43:18 16.3 C 21 %
102 30-04-2020 16:53:17 15.9 C 21 %
103 30-04-2020 17:03:17 14.8 C 25 %
104 30-04-2020 17:13:17 12.5 C 33 %
105 30-04-2020 17:23:18 11.8 C 37 %
106 30-04-2020 17:33:17 11.5 C 37 %
107 30-04-2020 17:43:17 10.7 C 40 %
108 30-04-2020 17:53:17 10.8 C 42 %
109 30-04-2020 18:03:17 10.6 C 41 %
110 30-04-2020 18:13:18 10.3 C 42 %
111 30-04-2020 18:23:17 10.2 C 42 %
112 30-04-2020 18:33:17 10.2 C 43 %
113 30-04-2020 18:43:17 10 C 41 %
114 30-04-2020 18:53:17 9.9 C 41 %
115 30-04-2020 19:03:18 9.6 C 41 %
116 30-04-2020 19:13:18 9.5 C 41 %
117 30-04-2020 19:23:17 10 C 40 %
118 30-04-2020 19:33:18 10.1 C 41 %
119 30-04-2020 19:43:18 10 C 41 %
120 30-04-2020 19:53:17 9.9 C 44 %
121 30-04-2020 20:03:17 9.7 C 45 %
122 30-04-2020 20:13:17 9.6 C 45 %
123 30-04-2020 20:23:17 9.4 C 44 %
124 30-04-2020 20:33:18 9 C 44 %
125 30-04-2020 20:43:18 8.6 C 45 %
Sensor: Nr:Datum:Temp:Feuchte:
Aussen-T/F 126 30-04-2020 20:53:17 8.6 C 46 %
127 30-04-2020 21:03:17 8.7 C 46 %
128 30-04-2020 21:13:17 8.8 C 45 %
129 30-04-2020 21:23:17 8.9 C 45 %
130 30-04-2020 21:33:17 9 C 45 %
131 30-04-2020 21:43:18 9 C 45 %
132 30-04-2020 21:53:17 9 C 45 %
133 30-04-2020 22:03:18 8.6 C 45 %
134 30-04-2020 22:13:18 8.4 C 45 %
135 30-04-2020 22:23:18 8.7 C 45 %
136 30-04-2020 22:33:17 8.7 C 45 %
137 30-04-2020 22:43:17 8.6 C 45 %
138 30-04-2020 22:53:18 8.5 C 45 %
139 30-04-2020 23:03:17 8.4 C 45 %
140 30-04-2020 23:13:17 8.3 C 45 %
141 30-04-2020 23:23:17 8.3 C 45 %
142 30-04-2020 23:33:17 8.6 C 45 %
143 30-04-2020 23:43:17 9 C 44 %
144 30-04-2020 23:53:17 9.2 C 43 %
145 01-05-2020 00:03:17 8.9 C 43 %
146 01-05-2020 00:13:17 8.6 C 44 %
147 01-05-2020 00:23:17 8.2 C 44 %
148 01-05-2020 00:33:18 8.4 C 44 %
149 01-05-2020 00:43:18 8.2 C 44 %
150 01-05-2020 00:53:17 7.8 C 45 %
Sensor: Nr:Datum:Temp:Feuchte:
Aussen-T/F 151 01-05-2020 01:03:17 8.1 C 45 %
152 01-05-2020 01:13:18 8.2 C 44 %
153 01-05-2020 01:23:18 8.1 C 43 %
154 01-05-2020 01:33:18 8.1 C 43 %
155 01-05-2020 01:43:18 8.5 C 42 %
156 01-05-2020 01:53:17 8.5 C 41 %
157 01-05-2020 02:03:17 8.1 C 42 %
158 01-05-2020 02:13:18 8 C 42 %
159 01-05-2020 02:23:17 7.7 C 43 %
160 01-05-2020 02:33:17 7.6 C 43 %
161 01-05-2020 02:43:17 7.8 C 43 %
162 01-05-2020 02:53:17 7.7 C 44 %
163 01-05-2020 03:03:17 7.4 C 44 %
164 01-05-2020 03:13:18 7.4 C 46 %
165 01-05-2020 03:23:17 7.9 C 44 %
166 01-05-2020 03:33:17 8.2 C 41 %
167 01-05-2020 03:43:17 8 C 42 %
168 01-05-2020 03:53:18 7.4 C 44 %
169 01-05-2020 04:03:17 7.3 C 45 %
170 01-05-2020 04:13:17 7 C 45 %
171 01-05-2020 04:23:17 7.1 C 46 %
172 01-05-2020 04:33:17 7.3 C 46 %
173 01-05-2020 04:43:17 7.4 C 46 %
174 01-05-2020 04:53:17 7.6 C 46 %
175 01-05-2020 05:03:18 7.8 C 46 %
Sensor: Nr:Datum:Temp:Feuchte:
Aussen-T/F 176 01-05-2020 05:13:18 7.9 C 46 %
177 01-05-2020 05:23:17 8 C 45 %
178 01-05-2020 05:33:18 8 C 45 %
179 01-05-2020 05:43:18 8.6 C 41 %
180 01-05-2020 05:53:17 8.4 C 40 %
181 01-05-2020 06:03:17 8.1 C 41 %
182 01-05-2020 06:13:17 7.8 C 43 %
183 01-05-2020 06:23:17 7.6 C 44 %
184 01-05-2020 06:33:17 7.6 C 45 %
185 01-05-2020 06:43:17 7.4 C 45 %
186 01-05-2020 06:53:17 7 C 45 %
187 01-05-2020 07:03:17 6.8 C 46 %
188 01-05-2020 07:13:17 6.9 C 46 %
189 01-05-2020 07:23:17 7.8 C 46 %
190 01-05-2020 07:33:18 7.9 C 46 %
191 01-05-2020 07:43:18 8.3 C 45 %
192 01-05-2020 07:53:17 8.1 C 41 %
193 01-05-2020 08:03:18 8.1 C 41 %
194 01-05-2020 08:13:18 8.4 C 41 %
195 01-05-2020 08:23:18 8.3 C 42 %
196 01-05-2020 08:33:18 8.3 C 44 %
197 01-05-2020 08:43:18 9 C 44 %
198 01-05-2020 08:53:17 9.2 C 42 %
199 01-05-2020 09:03:17 9.6 C 42 %
200 01-05-2020 09:13:17 9.7 C 42 %
Sensor: Nr:Datum:Temp:Feuchte:
Aussen-T/F 201 01-05-2020 09:23:17 10.1 C 40 %
202 01-05-2020 09:33:17 10.4 C 38 %
203 01-05-2020 09:43:18 10.6 C 39 %
204 01-05-2020 09:53:18 10.5 C 38 %
205 01-05-2020 10:03:18 10.5 C 38 %
206 01-05-2020 10:13:18 10.6 C 37 %
207 01-05-2020 10:23:17 10.5 C 37 %
208 01-05-2020 10:33:17 11 C 37 %
209 01-05-2020 10:43:17 11.5 C 36 %
210 01-05-2020 10:53:17 12.6 C 34 %
211 01-05-2020 11:03:17 12.5 C 33 %
212 01-05-2020 11:13:18 12.8 C 33 %
213 01-05-2020 11:23:17 12.7 C 32 %
214 01-05-2020 11:33:18 13.1 C 31 %
215 01-05-2020 11:43:18 13.1 C 31 %
216 01-05-2020 11:53:17 12.8 C 32 %
217 01-05-2020 12:03:17 12.1 C 32 %
218 01-05-2020 12:13:17 11.9 C 34 %
219 01-05-2020 12:23:17 12.1 C 33 %
220 01-05-2020 12:33:17 11.1 C 36 %
221 01-05-2020 12:43:17 10.7 C 38 %
222 01-05-2020 12:53:17 10.4 C 39 %
223 01-05-2020 13:03:18 10.3 C 38 %
224 01-05-2020 13:13:18 9.7 C 38 %
225 01-05-2020 13:23:17 10.5 C 38 %
Sensor: Nr:Datum:Temp:Feuchte:
Aussen-T/F 226 01-05-2020 13:33:17 11.3 C 36 %
227 01-05-2020 13:43:17 12.4 C 34 %
228 01-05-2020 13:53:17 12.8 C 34 %
229 01-05-2020 14:03:17 12.3 C 33 %
230 01-05-2020 14:13:17 13.5 C 31 %
231 01-05-2020 14:23:18 14.7 C 28 %
232 01-05-2020 14:33:18 14.2 C 27 %
233 01-05-2020 14:43:18 16.8 C 22 %
234 01-05-2020 14:53:17 19.6 C 20 %
235 01-05-2020 15:03:17 19.2 C 20 %
236 01-05-2020 15:13:17 20 C 20 %
237 01-05-2020 15:23:17 16.6 C 20 %
238 01-05-2020 15:33:17 14.9 C 25 %
239 01-05-2020 15:43:17 13.5 C 27 %
240 01-05-2020 15:53:17 11.7 C 34 %
241 01-05-2020 16:03:18 13.5 C 30 %
242 01-05-2020 16:13:18 18.5 C 24 %
243 01-05-2020 16:23:17 19 C 20 %
244 01-05-2020 16:33:18 18 C 20 %
245 01-05-2020 16:43:18 18.4 C 20 %
246 01-05-2020 16:53:17 17.1 C 22 %
247 01-05-2020 17:03:18 19.1 C 20 %
248 01-05-2020 17:13:18 18.3 C 20 %
249 01-05-2020 17:23:17 15.5 C 25 %
250 01-05-2020 17:33:17 14 C 28 %
Sensor: Nr:Datum:Temp:Feuchte:
Aussen-T/F 251 01-05-2020 17:43:17 12.2 C 34 %
252 01-05-2020 17:53:17 12.3 C 35 %
253 01-05-2020 18:03:18 12.5 C 35 %
254 01-05-2020 18:13:18 12.1 C 35 %
255 01-05-2020 18:23:17 12.2 C 35 %
256 01-05-2020 18:33:18 12.8 C 35 %
257 01-05-2020 18:43:18 13.8 C 34 %
258 01-05-2020 18:53:17 13.2 C 31 %
259 01-05-2020 19:03:18 12.7 C 34 %
260 01-05-2020 19:13:18 12.1 C 35 %
261 01-05-2020 19:23:18 11.7 C 36 %
262 01-05-2020 19:33:17 11.8 C 35 %
263 01-05-2020 19:43:17 11.8 C 35 %
264 01-05-2020 19:53:17 11.4 C 35 %
265 01-05-2020 20:03:17 11.3 C 35 %
266 01-05-2020 20:13:17 11.3 C 35 %
267 01-05-2020 20:23:17 11.5 C 34 %
268 01-05-2020 20:33:17 11.1 C 34 %
269 01-05-2020 20:43:17 10.5 C 36 %
270 01-05-2020 20:53:17 10.3 C 37 %
271 01-05-2020 21:03:18 10.3 C 37 %
272 01-05-2020 21:13:18 10.4 C 37 %
273 01-05-2020 21:23:17 10.2 C 37 %
274 01-05-2020 21:33:17 9.8 C 38 %
275 01-05-2020 21:43:17 9.3 C 39 %
Sensor: Nr:Datum:Temp:Feuchte:
Aussen-T/F 276 01-05-2020 21:53:17 8.8 C 40 %
277 01-05-2020 22:03:18 9 C 40 %
278 01-05-2020 22:13:18 9 C 40 %
279 01-05-2020 22:23:17 9.2 C 39 %
280 01-05-2020 22:33:17 9.3 C 39 %
281 01-05-2020 22:43:17 9.3 C 40 %
282 01-05-2020 22:53:18 9.5 C 39 %
283 01-05-2020 23:03:17 9.4 C 40 %
284 01-05-2020 23:13:17 9.3 C 40 %
285 01-05-2020 23:23:17 9.3 C 40 %
286 01-05-2020 23:33:17 9.4 C 40 %
287 01-05-2020 23:43:17 9.5 C 39 %
288 01-05-2020 23:53:17 9.4 C 40 %
Sensor: Nr:Datum:Temp:Feuchte:
G-T/H 1 30-04-2020 00:03:17 14.2 C 65 %
2 30-04-2020 00:13:17 14.2 C 65 %
3 30-04-2020 00:23:17 14.2 C 65 %
4 30-04-2020 00:33:17 14.2 C 65 %
5 30-04-2020 00:43:17 14.2 C 65 %
6 30-04-2020 00:53:17 14.2 C 65 %
7 30-04-2020 01:03:17 14.2 C 65 %
8 30-04-2020 01:13:17 14.3 C 65 %
9 30-04-2020 01:23:17 14.2 C 65 %
10 30-04-2020 01:33:17 14.2 C 65 %
11 30-04-2020 01:43:17 14.2 C 65 %
12 30-04-2020 01:53:17 14.2 C 65 %
13 30-04-2020 02:03:17 14.2 C 65 %
14 30-04-2020 02:13:17 14.2 C 65 %
15 30-04-2020 02:23:17 14.2 C 65 %
16 30-04-2020 02:33:17 14.2 C 65 %
17 30-04-2020 02:43:17 14.2 C 65 %
18 30-04-2020 02:53:17 14.2 C 65 %
19 30-04-2020 03:03:17 14.2 C 65 %
20 30-04-2020 03:13:17 14.2 C 65 %
21 30-04-2020 03:23:17 14.2 C 65 %
22 30-04-2020 03:33:17 14.2 C 65 %
23 30-04-2020 03:43:18 14.2 C 65 %
24 30-04-2020 03:53:17 14.1 C 65 %
25 30-04-2020 04:03:17 14.1 C 65 %
Sensor: Nr:Datum:Temp:Feuchte:
G-T/H 26 30-04-2020 04:13:17 14.2 C 65 %
27 30-04-2020 04:23:17 14.2 C 65 %
28 30-04-2020 04:33:18 14.1 C 65 %
29 30-04-2020 04:43:18 14.1 C 65 %
30 30-04-2020 04:53:17 14.1 C 65 %
31 30-04-2020 05:03:17 14.1 C 65 %
32 30-04-2020 05:13:17 14.1 C 65 %
33 30-04-2020 05:23:17 14.1 C 65 %
34 30-04-2020 05:33:17 14.1 C 65 %
35 30-04-2020 05:43:17 14.1 C 65 %
36 30-04-2020 05:53:18 14.1 C 65 %
37 30-04-2020 06:03:17 14.1 C 65 %
38 30-04-2020 06:13:18 14.1 C 65 %
39 30-04-2020 06:23:17 14 C 65 %
40 30-04-2020 06:33:17 14 C 65 %
41 30-04-2020 06:43:17 14.1 C 65 %
42 30-04-2020 06:53:17 14.1 C 65 %
43 30-04-2020 07:03:17 14 C 65 %
44 30-04-2020 07:13:17 14 C 65 %
45 30-04-2020 07:23:17 14 C 65 %
46 30-04-2020 07:33:17 14 C 65 %
47 30-04-2020 07:43:17 14 C 65 %
48 30-04-2020 07:53:17 14 C 65 %
49 30-04-2020 08:03:17 14 C 65 %
50 30-04-2020 08:13:17 14 C 65 %
Sensor: Nr:Datum:Temp:Feuchte:
G-T/H 51 30-04-2020 08:23:17 14 C 65 %
52 30-04-2020 08:33:17 14 C 65 %
53 30-04-2020 08:43:17 14 C 65 %
54 30-04-2020 08:53:17 14 C 65 %
55 30-04-2020 09:03:17 13.9 C 66 %
56 30-04-2020 09:13:17 14 C 65 %
57 30-04-2020 09:23:18 14 C 65 %
58 30-04-2020 09:33:17 14 C 65 %
59 30-04-2020 09:43:17 14 C 65 %
60 30-04-2020 09:53:17 14 C 65 %
61 30-04-2020 10:03:17 14 C 65 %
62 30-04-2020 10:13:17 13.9 C 66 %
63 30-04-2020 10:23:17 14 C 65 %
64 30-04-2020 10:33:17 14 C 65 %
65 30-04-2020 10:43:17 13.9 C 66 %
66 30-04-2020 10:53:18 14 C 65 %
67 30-04-2020 11:03:18 14 C 65 %
68 30-04-2020 11:13:18 13.9 C 66 %
69 30-04-2020 11:23:17 14 C 65 %
70 30-04-2020 11:33:17 13.9 C 66 %
71 30-04-2020 11:43:17 14 C 65 %
72 30-04-2020 11:53:17 14 C 65 %
73 30-04-2020 12:03:18 14 C 65 %
74 30-04-2020 12:13:18 13.9 C 66 %
75 30-04-2020 12:23:17 14 C 65 %
Sensor: Nr:Datum:Temp:Feuchte:
G-T/H 76 30-04-2020 12:33:17 14 C 65 %
77 30-04-2020 12:43:17 14 C 66 %
78 30-04-2020 12:53:18 14 C 65 %
79 30-04-2020 13:03:17 13.9 C 66 %
80 30-04-2020 13:13:17 14 C 65 %
81 30-04-2020 13:23:17 14 C 65 %
82 30-04-2020 13:33:17 14 C 65 %
83 30-04-2020 13:43:17 14 C 65 %
84 30-04-2020 13:53:17 14 C 65 %
85 30-04-2020 14:03:18 14 C 65 %
86 30-04-2020 14:13:18 14 C 65 %
87 30-04-2020 14:23:17 14 C 65 %
88 30-04-2020 14:33:18 14 C 65 %
89 30-04-2020 14:43:18 14 C 65 %
90 30-04-2020 14:53:17 14.1 C 65 %
91 30-04-2020 15:03:18 14 C 65 %
92 30-04-2020 15:13:18 14.1 C 65 %
93 30-04-2020 15:23:17 14.1 C 65 %
94 30-04-2020 15:33:17 14.1 C 65 %
95 30-04-2020 15:43:17 14.1 C 65 %
96 30-04-2020 15:53:18 14.1 C 65 %
97 30-04-2020 16:03:17 14.1 C 65 %
98 30-04-2020 16:13:17 14.1 C 65 %
99 30-04-2020 16:23:17 14.1 C 65 %
100 30-04-2020 16:33:17 14.1 C 65 %
Sensor: Nr:Datum:Temp:Feuchte:
G-T/H 101 30-04-2020 16:43:18 14.1 C 65 %
102 30-04-2020 16:53:17 14.1 C 65 %
103 30-04-2020 17:03:17 14.2 C 65 %
104 30-04-2020 17:13:17 14.2 C 65 %
105 30-04-2020 17:23:18 14.2 C 65 %
106 30-04-2020 17:33:17 14.1 C 65 %
107 30-04-2020 17:43:17 14.2 C 65 %
108 30-04-2020 17:53:17 14.2 C 65 %
109 30-04-2020 18:03:17 14.1 C 65 %
110 30-04-2020 18:13:18 14.1 C 65 %
111 30-04-2020 18:23:17 14.2 C 65 %
112 30-04-2020 18:33:17 14.1 C 65 %
113 30-04-2020 18:43:17 14.2 C 65 %
114 30-04-2020 18:53:17 14.2 C 65 %
115 30-04-2020 19:03:18 14.1 C 65 %
116 30-04-2020 19:13:18 14.2 C 65 %
117 30-04-2020 19:23:17 14.1 C 65 %
118 30-04-2020 19:33:18 14.2 C 65 %
119 30-04-2020 19:43:18 14.2 C 65 %
120 30-04-2020 19:53:17 14.2 C 65 %
121 30-04-2020 20:03:17 14.2 C 65 %
122 30-04-2020 20:13:17 14.2 C 65 %
123 30-04-2020 20:23:17 14.2 C 65 %
124 30-04-2020 20:33:18 14.1 C 65 %
125 30-04-2020 20:43:18 14.2 C 65 %
Sensor: Nr:Datum:Temp:Feuchte:
G-T/H 126 30-04-2020 20:53:17 14.1 C 65 %
127 30-04-2020 21:03:17 14.2 C 65 %
128 30-04-2020 21:13:17 14.1 C 65 %
129 30-04-2020 21:23:17 14.1 C 65 %
130 30-04-2020 21:33:17 14.1 C 65 %
131 30-04-2020 21:43:18 14.1 C 65 %
132 30-04-2020 21:53:17 14.1 C 65 %
133 30-04-2020 22:03:18 14.1 C 65 %
134 30-04-2020 22:13:18 14.1 C 65 %
135 30-04-2020 22:23:18 14.1 C 65 %
136 30-04-2020 22:33:17 14.1 C 65 %
137 30-04-2020 22:43:17 14.1 C 65 %
138 30-04-2020 22:53:18 14.1 C 65 %
139 30-04-2020 23:03:17 14.1 C 65 %
140 30-04-2020 23:13:17 14.1 C 65 %
141 30-04-2020 23:23:17 14 C 65 %
142 30-04-2020 23:33:17 14 C 65 %
143 30-04-2020 23:43:17 14 C 65 %
144 30-04-2020 23:53:17 14 C 65 %
145 01-05-2020 00:03:17 14 C 65 %
146 01-05-2020 00:13:17 14 C 65 %
147 01-05-2020 00:23:17 14 C 65 %
148 01-05-2020 00:33:18 14 C 65 %
149 01-05-2020 00:43:18 14 C 65 %
150 01-05-2020 00:53:17 14 C 65 %
Sensor: Nr:Datum:Temp:Feuchte:
G-T/H 151 01-05-2020 01:03:17 14 C 65 %
152 01-05-2020 01:13:18 13.9 C 65 %
153 01-05-2020 01:23:18 13.9 C 65 %
154 01-05-2020 01:33:18 13.9 C 65 %
155 01-05-2020 01:43:18 13.9 C 65 %
156 01-05-2020 01:53:17 13.9 C 65 %
157 01-05-2020 02:03:17 13.9 C 65 %
158 01-05-2020 02:13:18 13.8 C 65 %
159 01-05-2020 02:23:17 13.8 C 65 %
160 01-05-2020 02:33:17 13.8 C 65 %
161 01-05-2020 02:43:17 13.8 C 65 %
162 01-05-2020 02:53:17 13.8 C 65 %
163 01-05-2020 03:03:17 13.8 C 65 %
164 01-05-2020 03:13:18 13.7 C 65 %
165 01-05-2020 03:23:17 13.8 C 65 %
166 01-05-2020 03:33:17 13.7 C 65 %
167 01-05-2020 03:43:17 13.7 C 65 %
168 01-05-2020 03:53:18 13.7 C 64 %
169 01-05-2020 04:03:17 13.7 C 64 %
170 01-05-2020 04:13:17 13.7 C 64 %
171 01-05-2020 04:23:17 13.6 C 64 %
172 01-05-2020 04:33:17 13.7 C 64 %
173 01-05-2020 04:43:17 13.7 C 64 %
174 01-05-2020 04:53:17 13.6 C 64 %
175 01-05-2020 05:03:18 13.6 C 64 %
Sensor: Nr:Datum:Temp:Feuchte:
G-T/H 176 01-05-2020 05:13:18 13.6 C 64 %
177 01-05-2020 05:23:17 13.5 C 64 %
178 01-05-2020 05:33:18 13.5 C 64 %
179 01-05-2020 05:43:18 13.5 C 64 %
180 01-05-2020 05:53:17 13.5 C 64 %
181 01-05-2020 06:03:17 13.5 C 64 %
182 01-05-2020 06:13:17 13.5 C 64 %
183 01-05-2020 06:23:17 13.5 C 64 %
184 01-05-2020 06:33:17 13.5 C 64 %
185 01-05-2020 06:43:17 13.4 C 64 %
186 01-05-2020 06:53:17 13.4 C 64 %
187 01-05-2020 07:03:17 13.4 C 64 %
188 01-05-2020 07:13:17 13.4 C 64 %
189 01-05-2020 07:23:17 13.4 C 64 %
190 01-05-2020 07:33:18 13.4 C 64 %
191 01-05-2020 07:43:18 13.3 C 64 %
192 01-05-2020 07:53:17 13.3 C 64 %
193 01-05-2020 08:03:18 13.3 C 64 %
194 01-05-2020 08:13:18 13.3 C 64 %
195 01-05-2020 08:23:18 13.3 C 64 %
196 01-05-2020 08:33:18 13.3 C 64 %
197 01-05-2020 08:43:18 13.2 C 64 %
198 01-05-2020 08:53:17 13.2 C 64 %
199 01-05-2020 09:03:17 13.2 C 64 %
200 01-05-2020 09:13:17 13.2 C 64 %
Sensor: Nr:Datum:Temp:Feuchte:
G-T/H 201 01-05-2020 09:23:17 13.2 C 64 %
202 01-05-2020 09:33:17 13.2 C 65 %
203 01-05-2020 09:43:18 13.2 C 65 %
204 01-05-2020 09:53:18 13.2 C 65 %
205 01-05-2020 10:03:18 13.2 C 65 %
206 01-05-2020 10:13:18 13.1 C 65 %
207 01-05-2020 10:23:17 13.2 C 65 %
208 01-05-2020 10:33:17 13.2 C 65 %
209 01-05-2020 10:43:17 13.2 C 65 %
210 01-05-2020 10:53:17 13.2 C 65 %
211 01-05-2020 11:03:17 13.2 C 65 %
212 01-05-2020 11:13:18 13.1 C 65 %
213 01-05-2020 11:23:17 13.2 C 65 %
214 01-05-2020 11:33:18 13.1 C 65 %
215 01-05-2020 11:43:18 13.2 C 65 %
216 01-05-2020 11:53:17 13.2 C 65 %
217 01-05-2020 12:03:17 13.2 C 65 %
218 01-05-2020 12:13:17 13.2 C 65 %
219 01-05-2020 12:23:17 13.1 C 65 %
220 01-05-2020 12:33:17 13.2 C 65 %
221 01-05-2020 12:43:17 13.2 C 65 %
222 01-05-2020 12:53:17 13.2 C 65 %
223 01-05-2020 13:03:18 13.1 C 65 %
224 01-05-2020 13:13:18 13.2 C 65 %
225 01-05-2020 13:23:17 13.2 C 65 %
Sensor: Nr:Datum:Temp:Feuchte:
G-T/H 226 01-05-2020 13:33:17 13.2 C 65 %
227 01-05-2020 13:43:17 13.2 C 65 %
228 01-05-2020 13:53:17 13.2 C 65 %
229 01-05-2020 14:03:17 13.2 C 65 %
230 01-05-2020 14:13:17 13.2 C 65 %
231 01-05-2020 14:23:18 13.2 C 65 %
232 01-05-2020 14:33:18 13.3 C 65 %
233 01-05-2020 14:43:18 13.2 C 66 %
234 01-05-2020 14:53:17 13.3 C 66 %
235 01-05-2020 15:03:17 13.2 C 66 %
236 01-05-2020 15:13:17 13.2 C 66 %
237 01-05-2020 15:23:17 13.3 C 66 %
238 01-05-2020 15:33:17 13.3 C 66 %
239 01-05-2020 15:43:17 13.3 C 66 %
240 01-05-2020 15:53:17 13.3 C 66 %
241 01-05-2020 16:03:18 13.3 C 66 %
242 01-05-2020 16:13:18 13.3 C 66 %
243 01-05-2020 16:23:17 13.3 C 66 %
244 01-05-2020 16:33:18 13.3 C 66 %
245 01-05-2020 16:43:18 13.3 C 66 %
246 01-05-2020 16:53:17 13.4 C 66 %
247 01-05-2020 17:03:18 13.4 C 66 %
248 01-05-2020 17:13:18 13.4 C 66 %
249 01-05-2020 17:23:17 13.4 C 66 %
250 01-05-2020 17:33:17 13.4 C 66 %
Sensor: Nr:Datum:Temp:Feuchte:
G-T/H 251 01-05-2020 17:43:17 13.4 C 66 %
252 01-05-2020 17:53:17 13.4 C 66 %
253 01-05-2020 18:03:18 13.4 C 66 %
254 01-05-2020 18:13:18 13.4 C 66 %
255 01-05-2020 18:23:17 13.4 C 66 %
256 01-05-2020 18:33:18 13.4 C 66 %
257 01-05-2020 18:43:18 13.4 C 66 %
258 01-05-2020 18:53:17 13.4 C 67 %
259 01-05-2020 19:03:18 13.4 C 67 %
260 01-05-2020 19:13:18 13.4 C 67 %
261 01-05-2020 19:23:18 13.4 C 67 %
262 01-05-2020 19:33:17 13.4 C 66 %
263 01-05-2020 19:43:17 13.4 C 66 %
264 01-05-2020 19:53:17 13.4 C 66 %
265 01-05-2020 20:03:17 13.4 C 66 %
266 01-05-2020 20:13:17 13.4 C 66 %
267 01-05-2020 20:23:17 13.4 C 66 %
268 01-05-2020 20:33:17 13.4 C 66 %
269 01-05-2020 20:43:17 13.4 C 66 %
270 01-05-2020 20:53:17 13.4 C 66 %
271 01-05-2020 21:03:18 13.4 C 66 %
272 01-05-2020 21:13:18 13.4 C 66 %
273 01-05-2020 21:23:17 13.4 C 66 %
274 01-05-2020 21:33:17 13.4 C 66 %
275 01-05-2020 21:43:17 13.4 C 66 %
Sensor: Nr:Datum:Temp:Feuchte:
G-T/H 276 01-05-2020 21:53:17 13.4 C 66 %
277 01-05-2020 22:03:18 13.4 C 66 %
278 01-05-2020 22:13:18 13.4 C 66 %
279 01-05-2020 22:23:17 13.4 C 65 %
280 01-05-2020 22:33:17 13.4 C 65 %
281 01-05-2020 22:43:17 13.3 C 65 %
282 01-05-2020 22:53:18 13.3 C 65 %
283 01-05-2020 23:03:17 13.3 C 65 %
284 01-05-2020 23:13:17 13.3 C 65 %
285 01-05-2020 23:23:17 13.3 C 65 %
286 01-05-2020 23:33:17 13.3 C 65 %
287 01-05-2020 23:43:17 13.3 C 65 %
288 01-05-2020 23:53:17 13.3 C 65 %

Legende:
   Min
   Max


Maximal/Minimal-Werte vom 30.04.2020 - 01.05.2020

Sensor Min Max Avg
Temp
(Aussen-T/F)
6.8 °C
01-05-2020  07:03:17
20 °C
01-05-2020  15:13:17
11.38 °C
Feuchte
(Aussen-T/F)
20 %
30-04-2020  14:33:18
46 %
30-04-2020  20:53:17
36.91 %
Temp
(G-T/H)
13.1 °C
01-05-2020  10:13:18
14.3 °C
30-04-2020  01:13:17
13.76 °C
Feuchte
(G-T/H)
64 %
01-05-2020  03:53:18
67 %
01-05-2020  18:53:17
65.08 %

Die Daten stammen von einer Davis Vantage Pro 2 Wetter-Station und werden unter Linux mit der Software wview2wettercgi und aufbereitet. Alle Angaben erfolgen ohne Gewähr für ihre Vollständigkeit oder Richtigkeit.
Kontakt: Rainer Krienke krienke@uni-koblenz.de . Meine Webseiten an der Uni Koblenz oder privat.
Version: $Revision: 0.78 $